Time,TemperatureF,DewpointF,PressureIn,WindDirection,WindDirectionDegrees,WindSpeedMPH,WindSpeedGustMPH,Humidity,HourlyPrecipIn,Conditions,Clouds,dailyrainin,SolarRadiationWatts/m^2,SoftwareType,DateUTC
2013-03-26 00:02:00,41.0,15.0,-100.00,NE,46,5.0,9.0,34,0.00,,,0.00,0.000000,,2013-03-26 05:02:00,
2013-03-26 00:32:00,40.0,16.0,-100.00,ESE,106,5.0,9.0,38,0.00,,,0.00,0.000000,,2013-03-26 05:32:00,
2013-03-26 00:42:00,40.0,16.0,-100.00,ESE,106,5.0,9.0,38,0.00,,,0.00,0.000000,,2013-03-26 05:42:00,
2013-03-26 00:52:00,40.0,16.0,-100.00,ESE,106,5.0,9.0,38,0.00,,,0.00,0.000000,,2013-03-26 05:52:00,
2013-03-26 01:02:00,40.0,16.0,-100.00,ESE,106,5.0,9.0,38,0.00,,,0.00,0.000000,,2013-03-26 06:02:00,
2013-03-26 01:32:00,38.0,15.0,-100.00,ESE,110,5.0,7.0,39,0.00,,,0.00,0.000000,,2013-03-26 06:32:00,
2013-03-26 01:43:00,38.0,15.0,-100.00,ESE,110,5.0,7.0,39,0.00,,,0.00,0.000000,,2013-03-26 06:43:00,
2013-03-26 01:52:00,38.0,15.0,-100.00,ESE,110,5.0,7.0,39,0.00,,,0.00,0.000000,,2013-03-26 06:52:00,
2013-03-26 02:02:00,38.0,15.0,-100.00,ESE,110,5.0,7.0,39,0.00,,,0.00,0.000000,,2013-03-26 07:02:00,
2013-03-26 02:33:00,37.0,16.0,-100.00,SE,126,4.0,6.0,41,0.00,,,0.00,0.000000,,2013-03-26 07:33:00,
2013-03-26 02:43:00,37.0,16.0,-100.00,SE,126,4.0,6.0,41,0.00,,,0.00,0.000000,,2013-03-26 07:43:00,
2013-03-26 02:53:00,37.0,16.0,-100.00,SE,126,4.0,6.0,41,0.00,,,0.00,0.000000,,2013-03-26 07:53:00,
2013-03-26 03:02:00,37.0,16.0,-100.00,SE,126,4.0,6.0,41,0.00,,,0.00,0.000000,,2013-03-26 08:02:00,
2013-03-26 03:32:00,34.0,12.0,-100.00,NE,52,1.0,5.0,39,0.00,,,0.00,0.000000,,2013-03-26 08:32:00,
2013-03-26 03:42:00,34.0,12.0,-100.00,NE,52,1.0,5.0,39,0.00,,,0.00,0.000000,,2013-03-26 08:42:00,
2013-03-26 03:52:00,34.0,12.0,-100.00,NE,52,1.0,5.0,39,0.00,,,0.00,0.000000,,2013-03-26 08:52:00,
2013-03-26 04:02:00,34.0,12.0,-100.00,NE,52,1.0,5.0,39,0.00,,,0.00,0.000000,,2013-03-26 09:02:00,
2013-03-26 04:33:00,33.0,22.0,-100.00,NNE,26,2.0,4.0,64,0.00,,,0.00,0.000000,,2013-03-26 09:33:00,
2013-03-26 04:43:00,33.0,22.0,-100.00,NNE,26,2.0,4.0,64,0.00,,,0.00,0.000000,,2013-03-26 09:43:00,
2013-03-26 04:52:00,33.0,22.0,-100.00,NNE,26,2.0,4.0,64,0.00,,,0.00,0.000000,,2013-03-26 09:52:00,
2013-03-26 05:02:00,33.0,22.0,-100.00,NNE,26,2.0,4.0,64,0.00,,,0.00,0.000000,,2013-03-26 10:02:00,
2013-03-26 05:33:00,34.0,22.0,-100.00,ENE,65,0.0,0.0,61,0.00,,,0.00,0.000000,,2013-03-26 10:33:00,
2013-03-26 05:43:00,34.0,22.0,-100.00,ENE,65,0.0,0.0,61,0.00,,,0.00,0.000000,,2013-03-26 10:43:00,
2013-03-26 05:53:00,34.0,22.0,-100.00,ENE,65,0.0,0.0,61,0.00,,,0.00,0.000000,,2013-03-26 10:53:00,
2013-03-26 06:03:00,34.0,22.0,-100.00,ENE,65,0.0,0.0,61,0.00,,,0.00,0.000000,,2013-03-26 11:03:00,
2013-03-26 06:33:00,29.0,23.0,-100.00,SSW,206,5.0,7.0,78,0.00,,,0.00,0.000000,,2013-03-26 11:33:00,
2013-03-26 06:43:00,29.0,23.0,-100.00,SSW,206,5.0,7.0,78,0.00,,,0.00,0.000000,,2013-03-26 11:43:00,
2013-03-26 06:52:00,29.0,23.0,-100.00,SSW,206,5.0,7.0,78,0.00,,,0.00,0.000000,,2013-03-26 11:52:00,
2013-03-26 07:03:00,29.0,23.0,-100.00,SSW,206,5.0,7.0,78,0.00,,,0.00,0.000000,,2013-03-26 12:03:00,
2013-03-26 07:32:00,28.0,15.0,-100.00,West,280,1.0,7.0,57,0.00,,,0.00,0.000000,,2013-03-26 12:32:00,
2013-03-26 07:43:00,28.0,15.0,-100.00,West,280,1.0,7.0,57,0.00,,,0.00,0.000000,,2013-03-26 12:43:00,
2013-03-26 07:52:00,28.0,15.0,-100.00,West,280,1.0,7.0,57,0.00,,,0.00,0.000000,,2013-03-26 12:52:00,
2013-03-26 08:03:00,28.0,15.0,-100.00,West,280,1.0,7.0,57,0.00,,,0.00,0.000000,,2013-03-26 13:03:00,
2013-03-26 08:32:00,31.0,17.0,-100.00,ENE,74,1.0,6.0,56,0.00,,,0.00,24.000000,,2013-03-26 13:32:00,
2013-03-26 08:42:00,31.0,17.0,-100.00,ENE,74,1.0,6.0,56,0.00,,,0.00,24.000000,,2013-03-26 13:42:00,
2013-03-26 08:52:00,31.0,17.0,-100.00,ENE,74,1.0,6.0,56,0.00,,,0.00,24.000000,,2013-03-26 13:52:00,
2013-03-26 09:02:00,31.0,17.0,-100.00,ENE,74,1.0,6.0,56,0.00,,,0.00,24.000000,,2013-03-26 14:02:00,
2013-03-26 09:33:00,37.0,19.0,-100.00,WSW,256,3.0,5.0,47,0.00,,,0.00,237.000000,,2013-03-26 14:33:00,
2013-03-26 09:42:00,37.0,19.0,-100.00,WSW,256,3.0,5.0,47,0.00,,,0.00,237.000000,,2013-03-26 14:42:00,
2013-03-26 09:53:00,37.0,19.0,-100.00,WSW,256,3.0,5.0,47,0.00,,,0.00,237.000000,,2013-03-26 14:53:00,
2013-03-26 10:02:00,37.0,19.0,-100.00,WSW,256,3.0,5.0,47,0.00,,,0.00,237.000000,,2013-03-26 15:02:00,
2013-03-26 10:33:00,44.0,21.0,-100.00,SSE,158,4.0,7.0,39,0.00,,,0.00,522.000000,,2013-03-26 15:33:00,
2013-03-26 10:43:00,44.0,21.0,-100.00,SSE,158,4.0,7.0,39,0.00,,,0.00,522.000000,,2013-03-26 15:43:00,
2013-03-26 10:53:00,44.0,21.0,-100.00,SSE,158,4.0,7.0,39,0.00,,,0.00,522.000000,,2013-03-26 15:53:00,
2013-03-26 11:03:00,44.0,21.0,-100.00,SSE,158,4.0,7.0,39,0.00,,,0.00,522.000000,,2013-03-26 16:03:00,
2013-03-26 11:33:00,49.0,20.0,-100.00,SE,138,3.0,8.0,32,0.00,,,0.00,765.000000,,2013-03-26 16:33:00,
2013-03-26 11:42:00,49.0,20.0,-100.00,SE,138,3.0,8.0,32,0.00,,,0.00,765.000000,,2013-03-26 16:42:00,
2013-03-26 11:53:00,49.0,20.0,-100.00,SE,138,3.0,8.0,32,0.00,,,0.00,765.000000,,2013-03-26 16:53:00,
2013-03-26 12:02:00,49.0,20.0,-100.00,SE,138,3.0,8.0,32,0.00,,,0.00,765.000000,,2013-03-26 17:02:00,
2013-03-26 12:33:00,51.0,16.0,-100.00,South,188,5.0,10.0,25,0.00,,,0.00,967.000000,,2013-03-26 17:33:00,
2013-03-26 12:42:00,51.0,16.0,-100.00,South,188,5.0,10.0,25,0.00,,,0.00,967.000000,,2013-03-26 17:42:00,
2013-03-26 12:53:00,51.0,16.0,-100.00,South,188,5.0,10.0,25,0.00,,,0.00,967.000000,,2013-03-26 17:53:00,
2013-03-26 13:02:00,51.0,16.0,-100.00,South,188,5.0,10.0,25,0.00,,,0.00,967.000000,,2013-03-26 18:02:00,
2013-03-26 14:33:00,58.0,19.0,-100.00,SE,143,5.0,12.0,22,-99.99,,,0.00,1132.000000,,2013-03-26 19:33:00,
2013-03-26 14:42:00,58.0,19.0,-100.00,SE,143,5.0,12.0,22,-99.99,,,0.00,1132.000000,,2013-03-26 19:42:00,
2013-03-26 14:53:00,58.0,19.0,-100.00,SE,143,5.0,12.0,22,-99.99,,,0.00,1132.000000,,2013-03-26 19:53:00,
2013-03-26 15:02:00,58.0,19.0,-100.00,SE,143,5.0,12.0,22,-99.99,,,0.00,1132.000000,,2013-03-26 20:02:00,
2013-03-26 15:32:00,60.0,20.0,-100.00,South,176,6.0,12.0,21,0.00,,,0.00,1079.000000,,2013-03-26 20:32:00,
2013-03-26 15:43:00,60.0,20.0,-100.00,South,176,6.0,12.0,21,0.00,,,0.00,1079.000000,,2013-03-26 20:43:00,
2013-03-26 15:52:00,60.0,20.0,-100.00,South,176,6.0,12.0,21,0.00,,,0.00,1079.000000,,2013-03-26 20:52:00,
2013-03-26 16:02:00,60.0,20.0,-100.00,South,176,6.0,12.0,21,0.00,,,0.00,1079.000000,,2013-03-26 21:02:00,
2013-03-26 16:33:00,62.0,19.0,-100.00,SSE,161,9.0,14.0,19,0.00,,,0.00,956.000000,,2013-03-26 21:33:00,
2013-03-26 16:43:00,62.0,19.0,-100.00,SSE,161,9.0,14.0,19,0.00,,,0.00,956.000000,,2013-03-26 21:43:00,
2013-03-26 16:52:00,62.0,19.0,-100.00,SSE,161,9.0,14.0,19,0.00,,,0.00,956.000000,,2013-03-26 21:52:00,
2013-03-26 17:02:00,62.0,19.0,-100.00,SSE,161,9.0,14.0,19,0.00,,,0.00,956.000000,,2013-03-26 22:02:00,
2013-03-26 17:33:00,63.0,18.0,-100.00,South,175,10.0,18.0,17,0.00,,,0.00,776.000000,,2013-03-26 22:33:00,
2013-03-26 17:42:00,63.0,18.0,-100.00,South,175,10.0,18.0,17,0.00,,,0.00,776.000000,,2013-03-26 22:42:00,
2013-03-26 17:52:00,63.0,18.0,-100.00,South,175,10.0,18.0,17,0.00,,,0.00,776.000000,,2013-03-26 22:52:00,
2013-03-26 18:01:00,63.0,18.0,-100.00,South,175,10.0,18.0,17,0.00,,,0.00,776.000000,,2013-03-26 23:01:00,
2013-03-26 18:32:00,63.0,16.0,-100.00,South,169,8.0,15.0,16,0.00,,,0.00,546.000000,,2013-03-26 23:32:00,
2013-03-26 18:43:00,63.0,16.0,-100.00,South,169,8.0,15.0,16,0.00,,,0.00,546.000000,,2013-03-26 23:43:00,
2013-03-26 18:53:00,63.0,16.0,-100.00,South,169,8.0,15.0,16,0.00,,,0.00,546.000000,,2013-03-26 23:53:00,
2013-03-26 19:02:00,63.0,16.0,-100.00,South,169,8.0,15.0,16,0.00,,,0.00,546.000000,,2013-03-27 00:02:00,
2013-03-26 19:33:00,60.0,15.0,-100.00,SE,134,9.0,16.0,17,0.00,,,-99.99,291.000000,,2013-03-27 00:33:00,
2013-03-26 19:42:00,60.0,15.0,-100.00,SE,134,9.0,16.0,17,0.00,,,-99.99,291.000000,,2013-03-27 00:42:00,
2013-03-26 19:52:00,60.0,15.0,-100.00,SE,134,9.0,16.0,17,0.00,,,-99.99,291.000000,,2013-03-27 00:52:00,
2013-03-26 20:02:00,60.0,15.0,-100.00,SE,134,9.0,16.0,17,0.00,,,-99.99,291.000000,,2013-03-27 01:02:00,
2013-03-26 20:33:00,56.0,17.0,-100.00,SE,130,7.0,13.0,21,0.00,,,0.00,34.000000,,2013-03-27 01:33:00,
2013-03-26 20:43:00,56.0,17.0,-100.00,SE,130,7.0,13.0,21,0.00,,,0.00,34.000000,,2013-03-27 01:43:00,
2013-03-26 20:53:00,56.0,17.0,-100.00,SE,130,7.0,13.0,21,0.00,,,0.00,34.000000,,2013-03-27 01:53:00,
2013-03-26 21:03:00,56.0,17.0,-100.00,SE,130,7.0,13.0,21,0.00,,,0.00,34.000000,,2013-03-27 02:03:00,
2013-03-26 21:32:00,52.0,20.0,-100.00,ESE,110,8.0,12.0,28,0.00,,,0.00,0.000000,,2013-03-27 02:32:00,
2013-03-26 21:42:00,52.0,20.0,-100.00,ESE,110,8.0,12.0,28,0.00,,,0.00,0.000000,,2013-03-27 02:42:00,
2013-03-26 21:53:00,52.0,20.0,-100.00,ESE,110,8.0,12.0,28,0.00,,,0.00,0.000000,,2013-03-27 02:53:00,
2013-03-26 22:02:00,52.0,20.0,-100.00,ESE,110,8.0,12.0,28,0.00,,,0.00,0.000000,,2013-03-27 03:02:00,
2013-03-26 22:33:00,51.0,22.0,-100.00,ESE,121,11.0,16.0,32,0.00,,,0.00,0.000000,,2013-03-27 03:33:00,
2013-03-26 22:42:00,51.0,22.0,-100.00,ESE,121,11.0,16.0,32,0.00,,,0.00,0.000000,,2013-03-27 03:42:00,
2013-03-26 22:53:00,51.0,22.0,-100.00,ESE,121,11.0,16.0,32,0.00,,,0.00,0.000000,,2013-03-27 03:53:00,
2013-03-26 23:02:00,51.0,22.0,-100.00,ESE,121,11.0,16.0,32,0.00,,,0.00,0.000000,,2013-03-27 04:02:00,
2013-03-26 23:33:00,49.0,23.0,-100.00,SE,132,10.0,16.0,35,0.00,,,0.00,0.000000,,2013-03-27 04:33:00,
2013-03-26 23:43:00,49.0,23.0,-100.00,SE,132,10.0,16.0,35,0.00,,,0.00,0.000000,,2013-03-27 04:43:00,
2013-03-26 23:52:00,49.0,23.0,-100.00,SE,132,10.0,16.0,35,0.00,,,0.00,0.000000,,2013-03-27 04:52:00,